sensor_id;sensor_type;location;lat;lon;timestamp;temperature;humidity
19090;DHT22;9677;50.656;13.064;2022-08-21T00:02:21;22.60;59.70
19090;DHT22;9677;50.656;13.064;2022-08-21T00:04:51;22.50;59.70
19090;DHT22;9677;50.656;13.064;2022-08-21T00:07:24;22.60;59.80
19090;DHT22;9677;50.656;13.064;2022-08-21T00:09:54;22.70;59.80
19090;DHT22;9677;50.656;13.064;2022-08-21T00:12:23;22.70;59.90
19090;DHT22;9677;50.656;13.064;2022-08-21T00:15:13;22.50;59.80
19090;DHT22;9677;50.656;13.064;2022-08-21T00:17:43;22.50;59.90
19090;DHT22;9677;50.656;13.064;2022-08-21T00:20:13;22.50;59.80
19090;DHT22;9677;50.656;13.064;2022-08-21T00:22:42;22.50;59.90
19090;DHT22;9677;50.656;13.064;2022-08-21T00:25:14;22.50;59.80
19090;DHT22;9677;50.656;13.064;2022-08-21T00:27:46;22.40;59.80
19090;DHT22;9677;50.656;13.064;2022-08-21T00:30:18;22.50;59.80
19090;DHT22;9677;50.656;13.064;2022-08-21T00:32:50;22.50;59.90
19090;DHT22;9677;50.656;13.064;2022-08-21T00:35:22;22.50;59.90
19090;DHT22;9677;50.656;13.064;2022-08-21T00:37:52;22.70;60.00
19090;DHT22;9677;50.656;13.064;2022-08-21T00:40:25;22.50;59.90
19090;DHT22;9677;50.656;13.064;2022-08-21T00:42:56;22.50;60.00
19090;DHT22;9677;50.656;13.064;2022-08-21T00:45:25;22.50;59.90
19090;DHT22;9677;50.656;13.064;2022-08-21T00:47:54;22.50;59.90
19090;DHT22;9677;50.656;13.064;2022-08-21T00:50:26;22.60;60.00
19090;DHT22;9677;50.656;13.064;2022-08-21T00:52:57;22.50;60.00
19090;DHT22;9677;50.656;13.064;2022-08-21T00:55:28;22.50;59.90
19090;DHT22;9677;50.656;13.064;2022-08-21T00:58:00;22.60;60.00
19090;DHT22;9677;50.656;13.064;2022-08-21T01:00:32;22.50;59.90
19090;DHT22;9677;50.656;13.064;2022-08-21T01:03:07;22.70;60.00
19090;DHT22;9677;50.656;13.064;2022-08-21T01:05:37;22.70;60.00
19090;DHT22;9677;50.656;13.064;2022-08-21T01:08:06;22.70;60.00
19090;DHT22;9677;50.656;13.064;2022-08-21T01:10:37;22.60;60.00
19090;DHT22;9677;50.656;13.064;2022-08-21T01:13:08;22.50;60.00
19090;DHT22;9677;50.656;13.064;2022-08-21T01:15:40;22.50;60.00
19090;DHT22;9677;50.656;13.064;2022-08-21T01:18:12;22.50;60.00
19090;DHT22;9677;50.656;13.064;2022-08-21T01:20:44;22.60;60.00
19090;DHT22;9677;50.656;13.064;2022-08-21T01:23:18;22.60;60.00
19090;DHT22;9677;50.656;13.064;2022-08-21T01:25:47;22.50;60.00
19090;DHT22;9677;50.656;13.064;2022-08-21T01:28:15;22.50;59.90
19090;DHT22;9677;50.656;13.064;2022-08-21T01:30:44;22.50;60.00
19090;DHT22;9677;50.656;13.064;2022-08-21T01:33:12;22.50;60.00
19090;DHT22;9677;50.656;13.064;2022-08-21T01:35:40;22.50;60.00
19090;DHT22;9677;50.656;13.064;2022-08-21T01:38:09;22.50;60.00
19090;DHT22;9677;50.656;13.064;2022-08-21T01:40:39;22.50;60.00
19090;DHT22;9677;50.656;13.064;2022-08-21T01:43:07;22.50;60.00
19090;DHT22;9677;50.656;13.064;2022-08-21T01:45:36;22.70;60.00
19090;DHT22;9677;50.656;13.064;2022-08-21T01:48:04;22.50;59.90
19090;DHT22;9677;50.656;13.064;2022-08-21T01:50:32;22.50;60.70
19090;DHT22;9677;50.656;13.064;2022-08-21T01:53:01;22.50;60.00
19090;DHT22;9677;50.656;13.064;2022-08-21T01:55:30;22.60;60.00
19090;DHT22;9677;50.656;13.064;2022-08-21T01:57:59;22.50;60.00
19090;DHT22;9677;50.656;13.064;2022-08-21T02:00:28;22.50;60.00
19090;DHT22;9677;50.656;13.064;2022-08-21T02:02:56;22.50;60.00
19090;DHT22;9677;50.656;13.064;2022-08-21T02:05:25;22.50;60.00
19090;DHT22;9677;50.656;13.064;2022-08-21T02:07:55;22.50;60.00
19090;DHT22;9677;50.656;13.064;2022-08-21T02:10:26;22.70;60.20
19090;DHT22;9677;50.656;13.064;2022-08-21T02:12:58;22.50;60.10
19090;DHT22;9677;50.656;13.064;2022-08-21T02:15:28;22.60;60.10
19090;DHT22;9677;50.656;13.064;2022-08-21T02:18:00;22.50;60.10
19090;DHT22;9677;50.656;13.064;2022-08-21T02:20:31;22.40;60.00
19090;DHT22;9677;50.656;13.064;2022-08-21T02:23:01;22.40;60.10
19090;DHT22;9677;50.656;13.064;2022-08-21T02:25:31;22.60;60.30
19090;DHT22;9677;50.656;13.064;2022-08-21T02:28:03;22.60;60.30
19090;DHT22;9677;50.656;13.064;2022-08-21T02:30:36;22.40;60.40
19090;DHT22;9677;50.656;13.064;2022-08-21T02:33:07;22.40;60.40
19090;DHT22;9677;50.656;13.064;2022-08-21T02:35:38;22.30;60.40
19090;DHT22;9677;50.656;13.064;2022-08-21T02:38:11;22.30;60.50
19090;DHT22;9677;50.656;13.064;2022-08-21T02:40:42;22.50;60.80
19090;DHT22;9677;50.656;13.064;2022-08-21T02:43:16;22.40;60.80
19090;DHT22;9677;50.656;13.064;2022-08-21T02:45:46;22.40;61.00
19090;DHT22;9677;50.656;13.064;2022-08-21T02:48:18;22.20;60.90
19090;DHT22;9677;50.656;13.064;2022-08-21T02:50:52;22.40;61.20
19090;DHT22;9677;50.656;13.064;2022-08-21T02:53:23;22.10;61.20
19090;DHT22;9677;50.656;13.064;2022-08-21T02:55:52;22.10;61.20
19090;DHT22;9677;50.656;13.064;2022-08-21T02:58:26;22.20;61.30
19090;DHT22;9677;50.656;13.064;2022-08-21T03:00:55;22.10;61.50
19090;DHT22;9677;50.656;13.064;2022-08-21T03:03:25;22.10;61.30
19090;DHT22;9677;50.656;13.064;2022-08-21T03:05:54;22.10;61.50
19090;DHT22;9677;50.656;13.064;2022-08-21T03:08:23;22.00;61.50
19090;DHT22;9677;50.656;13.064;2022-08-21T03:10:54;22.00;61.50
19090;DHT22;9677;50.656;13.064;2022-08-21T03:13:24;22.00;61.60
19090;DHT22;9677;50.656;13.064;2022-08-21T03:15:52;22.00;61.80
19090;DHT22;9677;50.656;13.064;2022-08-21T03:18:24;22.00;61.70
19090;DHT22;9677;50.656;13.064;2022-08-21T03:20:52;21.90;61.80
19090;DHT22;9677;50.656;13.064;2022-08-21T03:23:21;22.00;61.80
19090;DHT22;9677;50.656;13.064;2022-08-21T03:25:50;22.20;62.10
19090;DHT22;9677;50.656;13.064;2022-08-21T03:28:23;21.90;62.00
19090;DHT22;9677;50.656;13.064;2022-08-21T03:30:53;22.10;62.10
19090;DHT22;9677;50.656;13.064;2022-08-21T03:33:22;21.90;62.00
19090;DHT22;9677;50.656;13.064;2022-08-21T03:35:57;21.90;62.10
19090;DHT22;9677;50.656;13.064;2022-08-21T03:38:30;22.10;62.50
19090;DHT22;9677;50.656;13.064;2022-08-21T03:41:00;22.00;62.40
19090;DHT22;9677;50.656;13.064;2022-08-21T03:43:31;21.90;62.20
19090;DHT22;9677;50.656;13.064;2022-08-21T03:46:01;21.90;62.30
19090;DHT22;9677;50.656;13.064;2022-08-21T03:48:30;22.00;63.10
19090;DHT22;9677;50.656;13.064;2022-08-21T03:50:59;21.90;62.30
19090;DHT22;9677;50.656;13.064;2022-08-21T03:53:27;22.10;62.40
19090;DHT22;9677;50.656;13.064;2022-08-21T03:55:57;21.90;62.30
19090;DHT22;9677;50.656;13.064;2022-08-21T03:58:27;21.90;62.20
19090;DHT22;9677;50.656;13.064;2022-08-21T04:00:59;22.20;62.50
19090;DHT22;9677;50.656;13.064;2022-08-21T04:03:29;22.00;62.40
19090;DHT22;9677;50.656;13.064;2022-08-21T04:05:57;22.00;62.20
19090;DHT22;9677;50.656;13.064;2022-08-21T04:08:26;22.20;62.40
19090;DHT22;9677;50.656;13.064;2022-08-21T04:10:56;22.10;62.30
19090;DHT22;9677;50.656;13.064;2022-08-21T04:13:26;22.00;62.30
19090;DHT22;9677;50.656;13.064;2022-08-21T04:15:57;22.00;62.30
19090;DHT22;9677;50.656;13.064;2022-08-21T04:18:26;22.10;63.20
19090;DHT22;9677;50.656;13.064;2022-08-21T04:20:56;22.10;62.40
19090;DHT22;9677;50.656;13.064;2022-08-21T04:23:26;22.10;62.40
19090;DHT22;9677;50.656;13.064;2022-08-21T04:25:56;22.00;62.30
19090;DHT22;9677;50.656;13.064;2022-08-21T04:28:26;22.00;62.30
19090;DHT22;9677;50.656;13.064;2022-08-21T04:30:58;22.00;62.40
19090;DHT22;9677;50.656;13.064;2022-08-21T04:33:26;22.00;62.40
19090;DHT22;9677;50.656;13.064;2022-08-21T04:35:57;22.00;62.30
19090;DHT22;9677;50.656;13.064;2022-08-21T04:38:26;22.10;62.50
19090;DHT22;9677;50.656;13.064;2022-08-21T04:41:04;21.90;62.30
19090;DHT22;9677;50.656;13.064;2022-08-21T04:43:33;21.90;63.10
19090;DHT22;9677;50.656;13.064;2022-08-21T04:46:03;22.00;62.50
19090;DHT22;9677;50.656;13.064;2022-08-21T04:48:32;21.90;62.50
19090;DHT22;9677;50.656;13.064;2022-08-21T04:51:05;21.90;62.50
19090;DHT22;9677;50.656;13.064;2022-08-21T04:53:38;21.90;62.60
19090;DHT22;9677;50.656;13.064;2022-08-21T04:56:14;21.90;62.70
19090;DHT22;9677;50.656;13.064;2022-08-21T04:58:47;22.20;62.90
19090;DHT22;9677;50.656;13.064;2022-08-21T05:01:20;22.10;62.70
19090;DHT22;9677;50.656;13.064;2022-08-21T05:03:52;22.00;62.80
19090;DHT22;9677;50.656;13.064;2022-08-21T05:06:23;22.00;62.70
19090;DHT22;9677;50.656;13.064;2022-08-21T05:08:55;22.00;62.60
19090;DHT22;9677;50.656;13.064;2022-08-21T05:11:29;22.20;62.90
19090;DHT22;9677;50.656;13.064;2022-08-21T05:13:58;22.00;62.60
19090;DHT22;9677;50.656;13.064;2022-08-21T05:16:27;22.00;62.60
19090;DHT22;9677;50.656;13.064;2022-08-21T05:19:04;22.00;62.70
19090;DHT22;9677;50.656;13.064;2022-08-21T05:21:33;22.00;62.70
19090;DHT22;9677;50.656;13.064;2022-08-21T05:24:02;22.00;62.70
19090;DHT22;9677;50.656;13.064;2022-08-21T05:26:31;22.10;62.80
19090;DHT22;9677;50.656;13.064;2022-08-21T05:29:11;22.10;62.70
19090;DHT22;9677;50.656;13.064;2022-08-21T05:31:42;22.10;62.70
19090;DHT22;9677;50.656;13.064;2022-08-21T05:34:10;22.10;62.70
19090;DHT22;9677;50.656;13.064;2022-08-21T05:36:42;22.10;62.70
19090;DHT22;9677;50.656;13.064;2022-08-21T05:39:10;22.10;62.80
19090;DHT22;9677;50.656;13.064;2022-08-21T05:41:39;22.10;62.80
19090;DHT22;9677;50.656;13.064;2022-08-21T05:44:07;22.20;62.90
19090;DHT22;9677;50.656;13.064;2022-08-21T05:46:37;22.20;62.80
19090;DHT22;9677;50.656;13.064;2022-08-21T05:49:07;22.40;63.00
19090;DHT22;9677;50.656;13.064;2022-08-21T05:51:35;22.50;63.00
19090;DHT22;9677;50.656;13.064;2022-08-21T05:54:04;22.30;62.80
19090;DHT22;9677;50.656;13.064;2022-08-21T05:56:33;22.40;62.70
19090;DHT22;9677;50.656;13.064;2022-08-21T05:59:22;22.50;62.80
19090;DHT22;9677;50.656;13.064;2022-08-21T06:01:51;22.50;62.80
19090;DHT22;9677;50.656;13.064;2022-08-21T06:04:21;22.40;62.60
19090;DHT22;9677;50.656;13.064;2022-08-21T06:06:49;22.40;62.70
19090;DHT22;9677;50.656;13.064;2022-08-21T06:09:18;22.50;62.70
19090;DHT22;9677;50.656;13.064;2022-08-21T06:11:46;22.50;62.70
19090;DHT22;9677;50.656;13.064;2022-08-21T06:14:15;22.50;62.60
19090;DHT22;9677;50.656;13.064;2022-08-21T06:16:43;22.60;62.50
19090;DHT22;9677;50.656;13.064;2022-08-21T06:19:12;22.60;62.50
19090;DHT22;9677;50.656;13.064;2022-08-21T06:21:42;22.60;62.50
19090;DHT22;9677;50.656;13.064;2022-08-21T06:24:10;22.60;62.50
19090;DHT22;9677;50.656;13.064;2022-08-21T06:26:39;22.70;62.30
19090;DHT22;9677;50.656;13.064;2022-08-21T06:29:07;22.70;62.20
19090;DHT22;9677;50.656;13.064;2022-08-21T06:31:39;22.70;62.20
19090;DHT22;9677;50.656;13.064;2022-08-21T06:34:07;22.70;62.10
19090;DHT22;9677;50.656;13.064;2022-08-21T06:36:36;22.70;62.10
19090;DHT22;9677;50.656;13.064;2022-08-21T06:39:06;22.70;62.20
19090;DHT22;9677;50.656;13.064;2022-08-21T06:41:51;22.80;62.20
19090;DHT22;9677;50.656;13.064;2022-08-21T06:44:26;22.80;62.20
19090;DHT22;9677;50.656;13.064;2022-08-21T06:46:55;22.80;62.10
19090;DHT22;9677;50.656;13.064;2022-08-21T06:49:23;22.90;62.20
19090;DHT22;9677;50.656;13.064;2022-08-21T06:51:51;23.00;62.20
19090;DHT22;9677;50.656;13.064;2022-08-21T06:54:22;23.00;62.20
19090;DHT22;9677;50.656;13.064;2022-08-21T06:56:50;23.00;62.20
19090;DHT22;9677;50.656;13.064;2022-08-21T06:59:19;23.00;61.90
19090;DHT22;9677;50.656;13.064;2022-08-21T07:01:47;23.20;62.00
19090;DHT22;9677;50.656;13.064;2022-08-21T07:04:16;23.10;61.90
19090;DHT22;9677;50.656;13.064;2022-08-21T07:06:45;23.10;61.80
19090;DHT22;9677;50.656;13.064;2022-08-21T07:09:13;23.20;61.70
19090;DHT22;9677;50.656;13.064;2022-08-21T07:11:43;23.20;61.60
19090;DHT22;9677;50.656;13.064;2022-08-21T07:14:13;23.20;61.50
19090;DHT22;9677;50.656;13.064;2022-08-21T07:16:46;23.20;61.40
19090;DHT22;9677;50.656;13.064;2022-08-21T07:19:15;23.20;61.30
19090;DHT22;9677;50.656;13.064;2022-08-21T07:21:43;23.30;61.30
19090;DHT22;9677;50.656;13.064;2022-08-21T07:24:11;23.30;61.20
19090;DHT22;9677;50.656;13.064;2022-08-21T07:26:40;23.30;62.00
19090;DHT22;9677;50.656;13.064;2022-08-21T07:29:10;23.30;61.20
19090;DHT22;9677;50.656;13.064;2022-08-21T07:31:38;23.50;61.20
19090;DHT22;9677;50.656;13.064;2022-08-21T07:34:07;23.40;61.00
19090;DHT22;9677;50.656;13.064;2022-08-21T07:36:35;23.40;61.00
19090;DHT22;9677;50.656;13.064;2022-08-21T07:39:05;23.40;60.80
19090;DHT22;9677;50.656;13.064;2022-08-21T07:41:34;23.50;60.80
19090;DHT22;9677;50.656;13.064;2022-08-21T07:44:03;23.40;60.90
19090;DHT22;9677;50.656;13.064;2022-08-21T07:46:33;23.50;60.90
19090;DHT22;9677;50.656;13.064;2022-08-21T07:49:02;23.60;61.00
19090;DHT22;9677;50.656;13.064;2022-08-21T07:51:32;23.50;60.80
19090;DHT22;9677;50.656;13.064;2022-08-21T07:54:01;23.60;61.00
19090;DHT22;9677;50.656;13.064;2022-08-21T07:56:31;23.60;61.80
19090;DHT22;9677;50.656;13.064;2022-08-21T07:58:59;23.60;60.90
19090;DHT22;9677;50.656;13.064;2022-08-21T08:01:29;23.60;60.90
19090;DHT22;9677;50.656;13.064;2022-08-21T08:03:59;23.70;61.00
19090;DHT22;9677;50.656;13.064;2022-08-21T08:06:28;23.70;60.90
19090;DHT22;9677;50.656;13.064;2022-08-21T08:08:57;23.80;60.90
19090;DHT22;9677;50.656;13.064;2022-08-21T08:11:25;23.80;60.80
19090;DHT22;9677;50.656;13.064;2022-08-21T08:13:54;23.90;60.80
19090;DHT22;9677;50.656;13.064;2022-08-21T08:16:24;23.90;60.70
19090;DHT22;9677;50.656;13.064;2022-08-21T08:18:52;24.00;60.50
19090;DHT22;9677;50.656;13.064;2022-08-21T08:21:23;24.00;60.40
19090;DHT22;9677;50.656;13.064;2022-08-21T08:23:52;24.00;60.20
19090;DHT22;9677;50.656;13.064;2022-08-21T08:26:20;24.10;60.10
19090;DHT22;9677;50.656;13.064;2022-08-21T08:28:49;24.10;59.80
19090;DHT22;9677;50.656;13.064;2022-08-21T08:31:17;24.10;59.70
19090;DHT22;9677;50.656;13.064;2022-08-21T08:33:46;24.20;59.80
19090;DHT22;9677;50.656;13.064;2022-08-21T08:36:15;24.30;59.80
19090;DHT22;9677;50.656;13.064;2022-08-21T08:38:47;24.30;59.80
19090;DHT22;9677;50.656;13.064;2022-08-21T08:41:18;24.30;59.70
19090;DHT22;9677;50.656;13.064;2022-08-21T08:44:03;24.30;59.30
19090;DHT22;9677;50.656;13.064;2022-08-21T08:46:38;24.40;58.90
19090;DHT22;9677;50.656;13.064;2022-08-21T08:49:13;24.40;58.80
19090;DHT22;9677;50.656;13.064;2022-08-21T08:51:48;24.40;58.90
19090;DHT22;9677;50.656;13.064;2022-08-21T08:54:27;24.40;58.90
19090;DHT22;9677;50.656;13.064;2022-08-21T08:56:58;24.40;58.90
19090;DHT22;9677;50.656;13.064;2022-08-21T08:59:37;24.40;59.10
19090;DHT22;9677;50.656;13.064;2022-08-21T09:02:11;24.40;59.10
19090;DHT22;9677;50.656;13.064;2022-08-21T09:04:41;24.50;59.20
19090;DHT22;9677;50.656;13.064;2022-08-21T09:07:15;24.50;59.20
19090;DHT22;9677;50.656;13.064;2022-08-21T09:10:02;24.60;59.30
19090;DHT22;9677;50.656;13.064;2022-08-21T09:12:50;24.60;58.90
19090;DHT22;9677;50.656;13.064;2022-08-21T09:15:29;24.60;58.90
19090;DHT22;9677;50.656;13.064;2022-08-21T09:18:13;24.70;58.80
19090;DHT22;9677;50.656;13.064;2022-08-21T09:20:59;24.70;58.50
19090;DHT22;9677;50.656;13.064;2022-08-21T09:23:42;24.90;58.90
19090;DHT22;9677;50.656;13.064;2022-08-21T09:26:19;24.90;58.60
19090;DHT22;9677;50.656;13.064;2022-08-21T09:28:52;24.90;58.70
19090;DHT22;9677;50.656;13.064;2022-08-21T09:31:28;24.90;58.60
19090;DHT22;9677;50.656;13.064;2022-08-21T09:33:58;25.10;58.40
19090;DHT22;9677;50.656;13.064;2022-08-21T09:36:35;25.10;58.30
19090;DHT22;9677;50.656;13.064;2022-08-21T09:39:06;25.10;58.20
19090;DHT22;9677;50.656;13.064;2022-08-21T09:41:37;25.10;58.30
19090;DHT22;9677;50.656;13.064;2022-08-21T09:44:08;25.10;58.00
19090;DHT22;9677;50.656;13.064;2022-08-21T09:46:36;25.10;58.00
19090;DHT22;9677;50.656;13.064;2022-08-21T09:49:05;25.20;58.10
19090;DHT22;9677;50.656;13.064;2022-08-21T09:51:50;25.30;58.20
19090;DHT22;9677;50.656;13.064;2022-08-21T09:54:26;25.30;57.80
19090;DHT22;9677;50.656;13.064;2022-08-21T09:57:01;25.40;57.80
19090;DHT22;9677;50.656;13.064;2022-08-21T10:00:08;25.50;57.90
19090;DHT22;9677;50.656;13.064;2022-08-21T10:02:39;25.60;57.10
19090;DHT22;9677;50.656;13.064;2022-08-21T10:05:17;25.60;57.10
19090;DHT22;9677;50.656;13.064;2022-08-21T10:07:50;25.70;57.20
19090;DHT22;9677;50.656;13.064;2022-08-21T10:10:21;25.70;57.10
19090;DHT22;9677;50.656;13.064;2022-08-21T10:12:58;25.70;56.50
19090;DHT22;9677;50.656;13.064;2022-08-21T10:15:41;25.80;56.50
19090;DHT22;9677;50.656;13.064;2022-08-21T10:18:21;25.80;56.50
19090;DHT22;9677;50.656;13.064;2022-08-21T10:20:59;25.90;56.60
19090;DHT22;9677;50.656;13.064;2022-08-21T10:23:39;26.00;56.80
19090;DHT22;9677;50.656;13.064;2022-08-21T10:26:25;26.00;56.70
19090;DHT22;9677;50.656;13.064;2022-08-21T10:29:03;26.10;56.70
19090;DHT22;9677;50.656;13.064;2022-08-21T10:31:42;26.20;56.90
19090;DHT22;9677;50.656;13.064;2022-08-21T10:34:23;26.30;56.50
19090;DHT22;9677;50.656;13.064;2022-08-21T10:37:05;26.40;56.70
19090;DHT22;9677;50.656;13.064;2022-08-21T10:39:45;26.60;56.50
19090;DHT22;9677;50.656;13.064;2022-08-21T10:42:28;26.70;56.20
19090;DHT22;9677;50.656;13.064;2022-08-21T10:45:17;26.80;56.20
19090;DHT22;9677;50.656;13.064;2022-08-21T10:47:54;26.90;55.50
19090;DHT22;9677;50.656;13.064;2022-08-21T10:50:30;27.00;56.10
19090;DHT22;9677;50.656;13.064;2022-08-21T10:53:11;27.10;55.70
19090;DHT22;9677;50.656;13.064;2022-08-21T10:55:52;27.30;55.20
19090;DHT22;9677;50.656;13.064;2022-08-21T10:58:28;27.30;54.90
19090;DHT22;9677;50.656;13.064;2022-08-21T11:01:05;27.40;54.90
19090;DHT22;9677;50.656;13.064;2022-08-21T11:03:41;27.50;54.20
19090;DHT22;9677;50.656;13.064;2022-08-21T11:06:16;27.70;54.30
19090;DHT22;9677;50.656;13.064;2022-08-21T11:08:51;27.80;54.50
19090;DHT22;9677;50.656;13.064;2022-08-21T11:11:27;27.80;53.90
19090;DHT22;9677;50.656;13.064;2022-08-21T11:14:08;27.90;53.40
19090;DHT22;9677;50.656;13.064;2022-08-21T11:16:42;28.00;53.40
19090;DHT22;9677;50.656;13.064;2022-08-21T11:19:19;28.00;53.30
19090;DHT22;9677;50.656;13.064;2022-08-21T11:21:55;28.10;53.10
19090;DHT22;9677;50.656;13.064;2022-08-21T11:24:30;28.20;53.00
19090;DHT22;9677;50.656;13.064;2022-08-21T11:27:06;28.30;53.10
19090;DHT22;9677;50.656;13.064;2022-08-21T11:29:39;28.40;53.30
19090;DHT22;9677;50.656;13.064;2022-08-21T11:35:21;28.50;52.20
19090;DHT22;9677;50.656;13.064;2022-08-21T11:38:04;28.60;52.40
19090;DHT22;9677;50.656;13.064;2022-08-21T11:41:11;28.60;51.80
19090;DHT22;9677;50.656;13.064;2022-08-21T11:43:47;28.70;51.30
19090;DHT22;9677;50.656;13.064;2022-08-21T11:46:29;28.80;51.80
19090;DHT22;9677;50.656;13.064;2022-08-21T11:49:17;28.80;51.30
19090;DHT22;9677;50.656;13.064;2022-08-21T11:52:07;28.80;51.30
19090;DHT22;9677;50.656;13.064;2022-08-21T11:54:42;28.80;51.00
19090;DHT22;9677;50.656;13.064;2022-08-21T11:57:17;28.80;51.40
19090;DHT22;9677;50.656;13.064;2022-08-21T11:59:53;28.80;51.90
19090;DHT22;9677;50.656;13.064;2022-08-21T12:02:27;28.90;51.50
19090;DHT22;9677;50.656;13.064;2022-08-21T12:05:03;28.90;51.20
19090;DHT22;9677;50.656;13.064;2022-08-21T12:07:37;28.90;50.40
19090;DHT22;9677;50.656;13.064;2022-08-21T12:10:10;29.00;50.70
19090;DHT22;9677;50.656;13.064;2022-08-21T12:12:41;29.00;50.30
19090;DHT22;9677;50.656;13.064;2022-08-21T12:15:25;29.00;50.40
19090;DHT22;9677;50.656;13.064;2022-08-21T12:17:59;29.00;48.80
19090;DHT22;9677;50.656;13.064;2022-08-21T12:20:41;29.00;50.00
19090;DHT22;9677;50.656;13.064;2022-08-21T12:23:28;29.00;48.90
19090;DHT22;9677;50.656;13.064;2022-08-21T12:26:21;29.00;49.00
19090;DHT22;9677;50.656;13.064;2022-08-21T12:29:11;29.00;49.00
19090;DHT22;9677;50.656;13.064;2022-08-21T12:31:51;29.00;49.00
19090;DHT22;9677;50.656;13.064;2022-08-21T12:34:27;29.00;49.10
19090;DHT22;9677;50.656;13.064;2022-08-21T12:37:03;29.00;49.60
19090;DHT22;9677;50.656;13.064;2022-08-21T12:39:36;29.00;49.40
19090;DHT22;9677;50.656;13.064;2022-08-21T12:42:11;29.00;49.40
19090;DHT22;9677;50.656;13.064;2022-08-21T12:44:47;29.00;49.20
19090;DHT22;9677;50.656;13.064;2022-08-21T12:47:25;29.00;49.20
19090;DHT22;9677;50.656;13.064;2022-08-21T12:50:03;29.00;48.80
19090;DHT22;9677;50.656;13.064;2022-08-21T12:52:41;29.00;49.00
19090;DHT22;9677;50.656;13.064;2022-08-21T12:55:15;29.10;48.50
19090;DHT22;9677;50.656;13.064;2022-08-21T12:57:44;29.10;48.80
19090;DHT22;9677;50.656;13.064;2022-08-21T13:00:13;29.00;48.60
19090;DHT22;9677;50.656;13.064;2022-08-21T13:02:49;29.00;48.40
19090;DHT22;9677;50.656;13.064;2022-08-21T13:05:28;29.00;48.70
19090;DHT22;9677;50.656;13.064;2022-08-21T13:08:03;29.00;48.00
19090;DHT22;9677;50.656;13.064;2022-08-21T13:10:33;29.00;48.20
19090;DHT22;9677;50.656;13.064;2022-08-21T13:13:04;29.00;48.50
19090;DHT22;9677;50.656;13.064;2022-08-21T13:15:40;29.00;48.40
19090;DHT22;9677;50.656;13.064;2022-08-21T13:18:21;29.00;48.60
19090;DHT22;9677;50.656;13.064;2022-08-21T13:20:50;29.10;48.40
19090;DHT22;9677;50.656;13.064;2022-08-21T13:23:24;29.10;48.80
19090;DHT22;9677;50.656;13.064;2022-08-21T13:25:55;29.20;48.20
19090;DHT22;9677;50.656;13.064;2022-08-21T13:28:33;29.20;48.50
19090;DHT22;9677;50.656;13.064;2022-08-21T13:31:07;29.30;47.50
19090;DHT22;9677;50.656;13.064;2022-08-21T13:33:38;29.30;47.60
19090;DHT22;9677;50.656;13.064;2022-08-21T13:36:11;29.30;47.90
19090;DHT22;9677;50.656;13.064;2022-08-21T13:38:44;29.30;47.50
19090;DHT22;9677;50.656;13.064;2022-08-21T13:41:20;29.30;47.30
19090;DHT22;9677;50.656;13.064;2022-08-21T13:43:56;29.30;47.10
19090;DHT22;9677;50.656;13.064;2022-08-21T13:46:28;29.20;47.80
19090;DHT22;9677;50.656;13.064;2022-08-21T13:48:59;29.20;46.90
19090;DHT22;9677;50.656;13.064;2022-08-21T13:51:28;29.20;47.10
19090;DHT22;9677;50.656;13.064;2022-08-21T13:53:58;29.20;47.30
19090;DHT22;9677;50.656;13.064;2022-08-21T13:56:29;29.10;47.30
19090;DHT22;9677;50.656;13.064;2022-08-21T13:59:01;29.00;47.20
19090;DHT22;9677;50.656;13.064;2022-08-21T14:01:33;29.00;47.50
19090;DHT22;9677;50.656;13.064;2022-08-21T14:04:05;29.00;47.40
19090;DHT22;9677;50.656;13.064;2022-08-21T14:06:37;29.00;47.40
19090;DHT22;9677;50.656;13.064;2022-08-21T14:09:11;29.00;47.60
19090;DHT22;9677;50.656;13.064;2022-08-21T14:11:40;29.10;47.10
19090;DHT22;9677;50.656;13.064;2022-08-21T14:14:16;29.10;47.20
19090;DHT22;9677;50.656;13.064;2022-08-21T14:16:54;29.10;46.70
19090;DHT22;9677;50.656;13.064;2022-08-21T14:19:25;29.10;46.90
19090;DHT22;9677;50.656;13.064;2022-08-21T14:21:54;29.10;47.20
19090;DHT22;9677;50.656;13.064;2022-08-21T14:24:29;29.10;47.20
19090;DHT22;9677;50.656;13.064;2022-08-21T14:27:04;29.10;46.60
19090;DHT22;9677;50.656;13.064;2022-08-21T14:29:36;29.10;47.80
19090;DHT22;9677;50.656;13.064;2022-08-21T14:32:13;29.20;47.10
19090;DHT22;9677;50.656;13.064;2022-08-21T14:34:51;29.10;46.70
19090;DHT22;9677;50.656;13.064;2022-08-21T14:37:20;29.10;46.80
19090;DHT22;9677;50.656;13.064;2022-08-21T14:39:50;29.10;46.80
19090;DHT22;9677;50.656;13.064;2022-08-21T14:42:19;29.10;46.40
19090;DHT22;9677;50.656;13.064;2022-08-21T14:44:47;29.10;46.40
19090;DHT22;9677;50.656;13.064;2022-08-21T14:47:16;29.10;46.40
19090;DHT22;9677;50.656;13.064;2022-08-21T14:49:44;29.00;46.20
19090;DHT22;9677;50.656;13.064;2022-08-21T14:52:13;29.00;46.20
19090;DHT22;9677;50.656;13.064;2022-08-21T14:54:41;29.00;46.90
19090;DHT22;9677;50.656;13.064;2022-08-21T14:57:11;28.90;46.30
19090;DHT22;9677;50.656;13.064;2022-08-21T14:59:40;28.80;45.90
19090;DHT22;9677;50.656;13.064;2022-08-21T15:02:10;28.80;46.10
19090;DHT22;9677;50.656;13.064;2022-08-21T15:04:38;28.70;45.80
19090;DHT22;9677;50.656;13.064;2022-08-21T15:07:07;28.70;46.20
19090;DHT22;9677;50.656;13.064;2022-08-21T15:09:35;28.60;46.20
19090;DHT22;9677;50.656;13.064;2022-08-21T15:12:04;28.60;46.30
19090;DHT22;9677;50.656;13.064;2022-08-21T15:14:37;28.50;46.10
19090;DHT22;9677;50.656;13.064;2022-08-21T15:17:08;28.50;45.90
19090;DHT22;9677;50.656;13.064;2022-08-21T15:19:37;28.50;45.90
19090;DHT22;9677;50.656;13.064;2022-08-21T15:22:06;28.40;45.70
19090;DHT22;9677;50.656;13.064;2022-08-21T15:24:45;28.40;45.60
19090;DHT22;9677;50.656;13.064;2022-08-21T15:27:13;28.30;45.60
19090;DHT22;9677;50.656;13.064;2022-08-21T15:29:44;28.30;45.70
19090;DHT22;9677;50.656;13.064;2022-08-21T15:32:19;28.20;45.80
19090;DHT22;9677;50.656;13.064;2022-08-21T15:34:50;28.10;45.00
19090;DHT22;9677;50.656;13.064;2022-08-21T15:37:19;28.10;45.90
19090;DHT22;9677;50.656;13.064;2022-08-21T15:39:48;28.10;45.60
19090;DHT22;9677;50.656;13.064;2022-08-21T15:42:20;28.10;45.70
19090;DHT22;9677;50.656;13.064;2022-08-21T15:44:51;28.00;45.70
19090;DHT22;9677;50.656;13.064;2022-08-21T15:47:22;28.00;45.80
19090;DHT22;9677;50.656;13.064;2022-08-21T15:49:55;28.00;45.90
19090;DHT22;9677;50.656;13.064;2022-08-21T15:52:23;27.90;46.00
19090;DHT22;9677;50.656;13.064;2022-08-21T15:54:52;28.00;46.30
19090;DHT22;9677;50.656;13.064;2022-08-21T15:57:23;28.00;46.30
19090;DHT22;9677;50.656;13.064;2022-08-21T15:59:57;28.00;46.20
19090;DHT22;9677;50.656;13.064;2022-08-21T16:02:29;28.10;46.00
19090;DHT22;9677;50.656;13.064;2022-08-21T16:04:59;28.10;46.00
19090;DHT22;9677;50.656;13.064;2022-08-21T16:07:27;28.10;46.00